sensor_id;sensor_type;location;lat;lon;timestamp;P1;durP1;ratioP1;P2;durP2;ratioP2
15905;SDS011;8051;50.820;4.884;2023-08-17T00:02:04;25.07;;;23.30;;
15905;SDS011;8051;50.820;4.884;2023-08-17T00:04:32;25.83;;;24.13;;
15905;SDS011;8051;50.820;4.884;2023-08-17T00:06:59;26.03;;;24.07;;
15905;SDS011;8051;50.820;4.884;2023-08-17T00:09:26;25.87;;;23.57;;
15905;SDS011;8051;50.820;4.884;2023-08-17T00:11:55;25.50;;;23.37;;
15905;SDS011;8051;50.820;4.884;2023-08-17T00:14:23;24.93;;;23.20;;
15905;SDS011;8051;50.820;4.884;2023-08-17T00:16:51;25.60;;;23.77;;
15905;SDS011;8051;50.820;4.884;2023-08-17T00:19:19;25.80;;;23.60;;
15905;SDS011;8051;50.820;4.884;2023-08-17T00:21:46;25.00;;;23.30;;
15905;SDS011;8051;50.820;4.884;2023-08-17T00:24:14;24.97;;;23.17;;
15905;SDS011;8051;50.820;4.884;2023-08-17T00:26:41;25.43;;;23.63;;
15905;SDS011;8051;50.820;4.884;2023-08-17T00:29:10;25.70;;;23.73;;
15905;SDS011;8051;50.820;4.884;2023-08-17T00:31:40;26.50;;;24.60;;
15905;SDS011;8051;50.820;4.884;2023-08-17T00:34:07;25.40;;;23.27;;
15905;SDS011;8051;50.820;4.884;2023-08-17T00:36:34;25.20;;;23.30;;
15905;SDS011;8051;50.820;4.884;2023-08-17T00:39:02;24.43;;;22.83;;
15905;SDS011;8051;50.820;4.884;2023-08-17T00:41:29;24.50;;;22.80;;
15905;SDS011;8051;50.820;4.884;2023-08-17T00:43:57;25.03;;;23.27;;
15905;SDS011;8051;50.820;4.884;2023-08-17T00:46:26;24.60;;;22.93;;
15905;SDS011;8051;50.820;4.884;2023-08-17T00:48:54;24.73;;;23.13;;
15905;SDS011;8051;50.820;4.884;2023-08-17T00:51:23;24.90;;;23.20;;
15905;SDS011;8051;50.820;4.884;2023-08-17T00:53:51;24.17;;;22.47;;
15905;SDS011;8051;50.820;4.884;2023-08-17T00:56:21;24.33;;;22.53;;
15905;SDS011;8051;50.820;4.884;2023-08-17T00:58:48;25.00;;;23.40;;
15905;SDS011;8051;50.820;4.884;2023-08-17T01:01:16;25.10;;;23.40;;
15905;SDS011;8051;50.820;4.884;2023-08-17T01:03:46;25.23;;;23.30;;
15905;SDS011;8051;50.820;4.884;2023-08-17T01:06:13;25.10;;;23.50;;
15905;SDS011;8051;50.820;4.884;2023-08-17T01:08:41;26.23;;;24.17;;
15905;SDS011;8051;50.820;4.884;2023-08-17T01:11:13;24.83;;;23.13;;
15905;SDS011;8051;50.820;4.884;2023-08-17T01:13:47;25.90;;;23.73;;
15905;SDS011;8051;50.820;4.884;2023-08-17T01:16:20;25.07;;;23.33;;
15905;SDS011;8051;50.820;4.884;2023-08-17T01:18:54;24.93;;;23.23;;
15905;SDS011;8051;50.820;4.884;2023-08-17T01:21:24;25.83;;;23.93;;
15905;SDS011;8051;50.820;4.884;2023-08-17T01:23:58;25.47;;;23.77;;
15905;SDS011;8051;50.820;4.884;2023-08-17T01:26:30;25.73;;;23.83;;
15905;SDS011;8051;50.820;4.884;2023-08-17T01:28:57;25.53;;;23.77;;
15905;SDS011;8051;50.820;4.884;2023-08-17T01:31:27;24.57;;;23.03;;
15905;SDS011;8051;50.820;4.884;2023-08-17T01:34:00;25.03;;;23.40;;
15905;SDS011;8051;50.820;4.884;2023-08-17T01:36:33;25.40;;;23.60;;
15905;SDS011;8051;50.820;4.884;2023-08-17T01:39:06;25.10;;;23.50;;
15905;SDS011;8051;50.820;4.884;2023-08-17T01:41:34;25.50;;;23.70;;
15905;SDS011;8051;50.820;4.884;2023-08-17T01:44:04;26.60;;;24.60;;
15905;SDS011;8051;50.820;4.884;2023-08-17T01:46:32;25.67;;;23.70;;
15905;SDS011;8051;50.820;4.884;2023-08-17T01:49:00;25.50;;;23.73;;
15905;SDS011;8051;50.820;4.884;2023-08-17T01:51:27;25.93;;;23.97;;
15905;SDS011;8051;50.820;4.884;2023-08-17T01:53:55;25.70;;;23.90;;
15905;SDS011;8051;50.820;4.884;2023-08-17T01:56:24;25.63;;;23.93;;
15905;SDS011;8051;50.820;4.884;2023-08-17T01:58:52;26.33;;;24.53;;
15905;SDS011;8051;50.820;4.884;2023-08-17T02:01:19;25.83;;;24.03;;
15905;SDS011;8051;50.820;4.884;2023-08-17T02:03:47;25.57;;;23.87;;
15905;SDS011;8051;50.820;4.884;2023-08-17T02:06:14;25.57;;;23.53;;
15905;SDS011;8051;50.820;4.884;2023-08-17T02:08:41;25.53;;;23.73;;
15905;SDS011;8051;50.820;4.884;2023-08-17T02:11:10;25.43;;;23.40;;
15905;SDS011;8051;50.820;4.884;2023-08-17T02:13:39;25.80;;;23.47;;
15905;SDS011;8051;50.820;4.884;2023-08-17T02:16:07;24.80;;;23.17;;
15905;SDS011;8051;50.820;4.884;2023-08-17T02:18:34;25.77;;;23.63;;
15905;SDS011;8051;50.820;4.884;2023-08-17T02:21:02;25.90;;;24.10;;
15905;SDS011;8051;50.820;4.884;2023-08-17T02:23:29;25.27;;;23.50;;
15905;SDS011;8051;50.820;4.884;2023-08-17T02:25:57;24.90;;;23.20;;
15905;SDS011;8051;50.820;4.884;2023-08-17T02:28:24;24.53;;;22.90;;
15905;SDS011;8051;50.820;4.884;2023-08-17T02:30:56;25.60;;;23.80;;
15905;SDS011;8051;50.820;4.884;2023-08-17T02:33:24;24.87;;;23.10;;
15905;SDS011;8051;50.820;4.884;2023-08-17T02:35:52;24.37;;;22.57;;
15905;SDS011;8051;50.820;4.884;2023-08-17T02:38:19;24.80;;;23.10;;
15905;SDS011;8051;50.820;4.884;2023-08-17T02:40:48;24.90;;;22.93;;
15905;SDS011;8051;50.820;4.884;2023-08-17T02:43:16;26.60;;;23.73;;
15905;SDS011;8051;50.820;4.884;2023-08-17T02:45:43;25.47;;;23.57;;
15905;SDS011;8051;50.820;4.884;2023-08-17T02:48:12;25.10;;;23.20;;
15905;SDS011;8051;50.820;4.884;2023-08-17T02:50:40;25.53;;;23.70;;
15905;SDS011;8051;50.820;4.884;2023-08-17T02:53:07;24.60;;;22.90;;
15905;SDS011;8051;50.820;4.884;2023-08-17T02:55:35;25.63;;;23.73;;
15905;SDS011;8051;50.820;4.884;2023-08-17T02:58:02;24.13;;;22.47;;
15905;SDS011;8051;50.820;4.884;2023-08-17T03:00:30;24.73;;;22.90;;
15905;SDS011;8051;50.820;4.884;2023-08-17T03:02:57;24.63;;;22.93;;
15905;SDS011;8051;50.820;4.884;2023-08-17T03:05:26;24.50;;;22.80;;
15905;SDS011;8051;50.820;4.884;2023-08-17T03:07:54;24.90;;;23.07;;
15905;SDS011;8051;50.820;4.884;2023-08-17T03:10:21;24.03;;;22.43;;
15905;SDS011;8051;50.820;4.884;2023-08-17T03:12:50;24.40;;;22.67;;
15905;SDS011;8051;50.820;4.884;2023-08-17T03:15:17;23.97;;;22.17;;
15905;SDS011;8051;50.820;4.884;2023-08-17T03:17:45;23.97;;;22.17;;
15905;SDS011;8051;50.820;4.884;2023-08-17T03:20:12;25.30;;;23.23;;
15905;SDS011;8051;50.820;4.884;2023-08-17T03:22:41;23.50;;;21.80;;
15905;SDS011;8051;50.820;4.884;2023-08-17T03:25:08;24.27;;;22.50;;
15905;SDS011;8051;50.820;4.884;2023-08-17T03:27:36;24.07;;;22.20;;
15905;SDS011;8051;50.820;4.884;2023-08-17T03:30:04;23.63;;;22.03;;
15905;SDS011;8051;50.820;4.884;2023-08-17T03:32:32;24.27;;;22.47;;
15905;SDS011;8051;50.820;4.884;2023-08-17T03:35:00;24.30;;;22.60;;
15905;SDS011;8051;50.820;4.884;2023-08-17T03:37:27;24.33;;;22.67;;
15905;SDS011;8051;50.820;4.884;2023-08-17T03:39:56;24.13;;;22.10;;
15905;SDS011;8051;50.820;4.884;2023-08-17T03:42:25;22.77;;;21.03;;
15905;SDS011;8051;50.820;4.884;2023-08-17T03:44:53;23.07;;;21.57;;
15905;SDS011;8051;50.820;4.884;2023-08-17T03:47:20;23.17;;;21.30;;
15905;SDS011;8051;50.820;4.884;2023-08-17T03:49:48;24.30;;;22.60;;
15905;SDS011;8051;50.820;4.884;2023-08-17T03:52:15;22.83;;;21.23;;
15905;SDS011;8051;50.820;4.884;2023-08-17T03:54:42;22.27;;;20.67;;
15905;SDS011;8051;50.820;4.884;2023-08-17T03:57:11;24.57;;;22.77;;
15905;SDS011;8051;50.820;4.884;2023-08-17T03:59:39;23.37;;;21.57;;
15905;SDS011;8051;50.820;4.884;2023-08-17T04:02:07;21.93;;;20.53;;
15905;SDS011;8051;50.820;4.884;2023-08-17T04:04:35;24.13;;;22.50;;
15905;SDS011;8051;50.820;4.884;2023-08-17T04:07:03;24.13;;;22.30;;
15905;SDS011;8051;50.820;4.884;2023-08-17T04:09:32;23.93;;;22.23;;
15905;SDS011;8051;50.820;4.884;2023-08-17T04:12:00;23.97;;;22.27;;
15905;SDS011;8051;50.820;4.884;2023-08-17T04:14:31;23.70;;;22.07;;
15905;SDS011;8051;50.820;4.884;2023-08-17T04:16:58;22.60;;;21.10;;
15905;SDS011;8051;50.820;4.884;2023-08-17T04:19:26;23.63;;;21.93;;
15905;SDS011;8051;50.820;4.884;2023-08-17T04:21:53;22.30;;;20.80;;
15905;SDS011;8051;50.820;4.884;2023-08-17T04:24:21;24.53;;;22.53;;
15905;SDS011;8051;50.820;4.884;2023-08-17T04:26:48;23.27;;;21.47;;
15905;SDS011;8051;50.820;4.884;2023-08-17T04:29:16;23.20;;;21.37;;
15905;SDS011;8051;50.820;4.884;2023-08-17T04:31:45;24.33;;;22.50;;
15905;SDS011;8051;50.820;4.884;2023-08-17T04:34:12;22.70;;;21.10;;
15905;SDS011;8051;50.820;4.884;2023-08-17T04:36:40;22.37;;;20.77;;
15905;SDS011;8051;50.820;4.884;2023-08-17T04:39:07;23.37;;;21.53;;
15905;SDS011;8051;50.820;4.884;2023-08-17T04:41:35;22.53;;;20.90;;
15905;SDS011;8051;50.820;4.884;2023-08-17T04:44:02;24.17;;;22.27;;
15905;SDS011;8051;50.820;4.884;2023-08-17T04:46:30;23.30;;;21.67;;
15905;SDS011;8051;50.820;4.884;2023-08-17T04:48:59;21.83;;;20.40;;
15905;SDS011;8051;50.820;4.884;2023-08-17T04:51:26;23.07;;;21.23;;
15905;SDS011;8051;50.820;4.884;2023-08-17T04:53:54;22.77;;;20.90;;
15905;SDS011;8051;50.820;4.884;2023-08-17T04:56:22;23.70;;;21.33;;
15905;SDS011;8051;50.820;4.884;2023-08-17T04:58:49;23.00;;;21.50;;
15905;SDS011;8051;50.820;4.884;2023-08-17T05:01:17;23.53;;;21.57;;
15905;SDS011;8051;50.820;4.884;2023-08-17T05:03:44;22.40;;;21.00;;
15905;SDS011;8051;50.820;4.884;2023-08-17T05:06:14;24.97;;;23.03;;
15905;SDS011;8051;50.820;4.884;2023-08-17T05:08:41;24.43;;;22.63;;
15905;SDS011;8051;50.820;4.884;2023-08-17T05:11:09;25.07;;;23.03;;
15905;SDS011;8051;50.820;4.884;2023-08-17T05:13:36;24.30;;;22.20;;
15905;SDS011;8051;50.820;4.884;2023-08-17T05:16:04;23.97;;;21.93;;
15905;SDS011;8051;50.820;4.884;2023-08-17T05:18:32;24.40;;;22.70;;
15905;SDS011;8051;50.820;4.884;2023-08-17T05:20:59;23.83;;;22.23;;
15905;SDS011;8051;50.820;4.884;2023-08-17T05:23:28;24.53;;;22.83;;
15905;SDS011;8051;50.820;4.884;2023-08-17T05:25:56;24.07;;;22.17;;
15905;SDS011;8051;50.820;4.884;2023-08-17T05:28:23;24.50;;;22.70;;
15905;SDS011;8051;50.820;4.884;2023-08-17T05:30:51;26.17;;;23.70;;
15905;SDS011;8051;50.820;4.884;2023-08-17T05:33:18;25.53;;;23.60;;
15905;SDS011;8051;50.820;4.884;2023-08-17T05:35:46;25.30;;;23.40;;
15905;SDS011;8051;50.820;4.884;2023-08-17T05:38:19;24.87;;;23.20;;
15905;SDS011;8051;50.820;4.884;2023-08-17T05:40:48;25.23;;;23.53;;
15905;SDS011;8051;50.820;4.884;2023-08-17T05:43:21;24.70;;;22.87;;
15905;SDS011;8051;50.820;4.884;2023-08-17T05:45:49;26.57;;;24.37;;
15905;SDS011;8051;50.820;4.884;2023-08-17T05:48:18;25.70;;;23.80;;
15905;SDS011;8051;50.820;4.884;2023-08-17T05:50:46;25.87;;;23.87;;
15905;SDS011;8051;50.820;4.884;2023-08-17T05:53:14;23.93;;;22.43;;
15905;SDS011;8051;50.820;4.884;2023-08-17T05:55:41;26.30;;;24.20;;
15905;SDS011;8051;50.820;4.884;2023-08-17T05:58:10;25.40;;;23.57;;
15905;SDS011;8051;50.820;4.884;2023-08-17T06:00:38;25.03;;;23.37;;
15905;SDS011;8051;50.820;4.884;2023-08-17T06:03:05;24.73;;;22.93;;
15905;SDS011;8051;50.820;4.884;2023-08-17T06:05:33;25.00;;;23.30;;
15905;SDS011;8051;50.820;4.884;2023-08-17T06:08:00;25.10;;;23.47;;
15905;SDS011;8051;50.820;4.884;2023-08-17T06:10:28;26.43;;;24.20;;
15905;SDS011;8051;50.820;4.884;2023-08-17T06:12:56;25.63;;;23.83;;
15905;SDS011;8051;50.820;4.884;2023-08-17T06:15:25;25.97;;;24.23;;
15905;SDS011;8051;50.820;4.884;2023-08-17T06:17:52;24.30;;;22.60;;
15905;SDS011;8051;50.820;4.884;2023-08-17T06:20:20;26.07;;;24.00;;
15905;SDS011;8051;50.820;4.884;2023-08-17T06:22:47;26.30;;;24.10;;
15905;SDS011;8051;50.820;4.884;2023-08-17T06:25:15;27.63;;;25.43;;
15905;SDS011;8051;50.820;4.884;2023-08-17T06:27:43;27.47;;;25.23;;
15905;SDS011;8051;50.820;4.884;2023-08-17T06:30:11;26.83;;;24.93;;
15905;SDS011;8051;50.820;4.884;2023-08-17T06:32:40;27.03;;;24.80;;
15905;SDS011;8051;50.820;4.884;2023-08-17T06:35:08;27.57;;;25.23;;
15905;SDS011;8051;50.820;4.884;2023-08-17T06:37:35;27.70;;;25.63;;
15905;SDS011;8051;50.820;4.884;2023-08-17T06:40:03;26.33;;;24.53;;
15905;SDS011;8051;50.820;4.884;2023-08-17T06:42:32;27.10;;;24.73;;
15905;SDS011;8051;50.820;4.884;2023-08-17T06:44:59;28.23;;;26.10;;
15905;SDS011;8051;50.820;4.884;2023-08-17T06:47:27;27.13;;;25.17;;
15905;SDS011;8051;50.820;4.884;2023-08-17T06:49:56;27.03;;;24.93;;
15905;SDS011;8051;50.820;4.884;2023-08-17T06:52:24;28.60;;;26.30;;
15905;SDS011;8051;50.820;4.884;2023-08-17T06:54:51;26.63;;;24.73;;
15905;SDS011;8051;50.820;4.884;2023-08-17T06:57:19;27.67;;;25.60;;
15905;SDS011;8051;50.820;4.884;2023-08-17T06:59:47;26.00;;;24.03;;
15905;SDS011;8051;50.820;4.884;2023-08-17T07:02:14;26.70;;;24.70;;
15905;SDS011;8051;50.820;4.884;2023-08-17T07:04:42;27.67;;;25.60;;
15905;SDS011;8051;50.820;4.884;2023-08-17T07:07:10;26.97;;;24.97;;
15905;SDS011;8051;50.820;4.884;2023-08-17T07:09:39;28.33;;;26.13;;
15905;SDS011;8051;50.820;4.884;2023-08-17T07:12:07;27.00;;;25.00;;
15905;SDS011;8051;50.820;4.884;2023-08-17T07:14:34;27.37;;;25.37;;
15905;SDS011;8051;50.820;4.884;2023-08-17T07:17:02;27.53;;;25.47;;
15905;SDS011;8051;50.820;4.884;2023-08-17T07:19:30;28.00;;;25.63;;
15905;SDS011;8051;50.820;4.884;2023-08-17T07:21:57;26.97;;;24.97;;
15905;SDS011;8051;50.820;4.884;2023-08-17T07:24:26;28.10;;;26.00;;
15905;SDS011;8051;50.820;4.884;2023-08-17T07:26:53;28.07;;;25.33;;
15905;SDS011;8051;50.820;4.884;2023-08-17T07:29:21;27.30;;;25.17;;
15905;SDS011;8051;50.820;4.884;2023-08-17T07:31:48;27.37;;;25.30;;
15905;SDS011;8051;50.820;4.884;2023-08-17T07:34:16;26.90;;;25.10;;
15905;SDS011;8051;50.820;4.884;2023-08-17T07:36:43;28.03;;;25.90;;
15905;SDS011;8051;50.820;4.884;2023-08-17T07:39:11;28.40;;;26.00;;
15905;SDS011;8051;50.820;4.884;2023-08-17T07:41:39;29.33;;;26.93;;
15905;SDS011;8051;50.820;4.884;2023-08-17T07:44:07;27.43;;;25.53;;
15905;SDS011;8051;50.820;4.884;2023-08-17T07:46:34;29.23;;;26.70;;
15905;SDS011;8051;50.820;4.884;2023-08-17T07:49:02;28.93;;;26.47;;
15905;SDS011;8051;50.820;4.884;2023-08-17T07:51:30;28.73;;;26.10;;
15905;SDS011;8051;50.820;4.884;2023-08-17T07:53:59;29.13;;;26.60;;
15905;SDS011;8051;50.820;4.884;2023-08-17T07:56:27;27.33;;;25.23;;
15905;SDS011;8051;50.820;4.884;2023-08-17T07:58:55;27.00;;;24.77;;
15905;SDS011;8051;50.820;4.884;2023-08-17T08:01:23;27.43;;;25.23;;
15905;SDS011;8051;50.820;4.884;2023-08-17T08:03:51;28.23;;;26.03;;
15905;SDS011;8051;50.820;4.884;2023-08-17T08:06:18;28.87;;;26.63;;
15905;SDS011;8051;50.820;4.884;2023-08-17T08:08:46;30.20;;;27.40;;
15905;SDS011;8051;50.820;4.884;2023-08-17T08:11:14;29.00;;;26.80;;
15905;SDS011;8051;50.820;4.884;2023-08-17T08:13:42;30.70;;;27.93;;
15905;SDS011;8051;50.820;4.884;2023-08-17T08:16:11;32.87;;;30.07;;
15905;SDS011;8051;50.820;4.884;2023-08-17T08:18:38;33.57;;;30.03;;
15905;SDS011;8051;50.820;4.884;2023-08-17T08:21:06;32.80;;;29.77;;
15905;SDS011;8051;50.820;4.884;2023-08-17T08:23:33;32.37;;;29.40;;
15905;SDS011;8051;50.820;4.884;2023-08-17T08:26:01;31.80;;;28.97;;
15905;SDS011;8051;50.820;4.884;2023-08-17T08:28:28;32.67;;;29.63;;
15905;SDS011;8051;50.820;4.884;2023-08-17T08:30:59;33.47;;;30.40;;
15905;SDS011;8051;50.820;4.884;2023-08-17T08:33:30;33.10;;;30.10;;
15905;SDS011;8051;50.820;4.884;2023-08-17T08:35:58;31.87;;;29.10;;
15905;SDS011;8051;50.820;4.884;2023-08-17T08:38:25;32.17;;;29.47;;
15905;SDS011;8051;50.820;4.884;2023-08-17T08:40:54;32.97;;;28.63;;
15905;SDS011;8051;50.820;4.884;2023-08-17T08:43:22;35.00;;;31.90;;
15905;SDS011;8051;50.820;4.884;2023-08-17T08:45:49;34.77;;;31.87;;
15905;SDS011;8051;50.820;4.884;2023-08-17T08:48:18;36.73;;;33.03;;
15905;SDS011;8051;50.820;4.884;2023-08-17T08:50:48;34.63;;;31.43;;
15905;SDS011;8051;50.820;4.884;2023-08-17T08:53:18;37.40;;;33.93;;
15905;SDS011;8051;50.820;4.884;2023-08-17T08:55:52;36.30;;;32.73;;
15905;SDS011;8051;50.820;4.884;2023-08-17T08:58:24;36.83;;;33.57;;
15905;SDS011;8051;50.820;4.884;2023-08-17T09:00:52;35.83;;;32.43;;
15905;SDS011;8051;50.820;4.884;2023-08-17T09:03:20;32.00;;;29.50;;
15905;SDS011;8051;50.820;4.884;2023-08-17T09:05:49;35.13;;;31.93;;
15905;SDS011;8051;50.820;4.884;2023-08-17T09:08:21;37.63;;;34.10;;
15905;SDS011;8051;50.820;4.884;2023-08-17T09:10:49;37.90;;;34.57;;
15905;SDS011;8051;50.820;4.884;2023-08-17T09:13:17;38.07;;;34.70;;
15905;SDS011;8051;50.820;4.884;2023-08-17T09:15:44;37.57;;;34.07;;
15905;SDS011;8051;50.820;4.884;2023-08-17T09:18:11;36.63;;;33.30;;
15905;SDS011;8051;50.820;4.884;2023-08-17T09:20:39;38.70;;;35.33;;
15905;SDS011;8051;50.820;4.884;2023-08-17T09:23:13;36.70;;;33.57;;
15905;SDS011;8051;50.820;4.884;2023-08-17T09:25:42;38.40;;;34.70;;
15905;SDS011;8051;50.820;4.884;2023-08-17T09:28:11;35.97;;;32.73;;
15905;SDS011;8051;50.820;4.884;2023-08-17T09:30:49;37.03;;;33.60;;
15905;SDS011;8051;50.820;4.884;2023-08-17T09:33:18;38.20;;;34.67;;
15905;SDS011;8051;50.820;4.884;2023-08-17T09:35:46;36.77;;;33.40;;
15905;SDS011;8051;50.820;4.884;2023-08-17T09:38:16;35.33;;;31.90;;
15905;SDS011;8051;50.820;4.884;2023-08-17T09:40:44;36.47;;;33.07;;
15905;SDS011;8051;50.820;4.884;2023-08-17T09:43:11;33.83;;;30.73;;
15905;SDS011;8051;50.820;4.884;2023-08-17T09:45:40;35.93;;;32.47;;
15905;SDS011;8051;50.820;4.884;2023-08-17T09:48:09;33.87;;;30.97;;
15905;SDS011;8051;50.820;4.884;2023-08-17T09:50:37;35.47;;;32.20;;
15905;SDS011;8051;50.820;4.884;2023-08-17T09:53:04;35.07;;;31.93;;
15905;SDS011;8051;50.820;4.884;2023-08-17T09:55:33;35.70;;;32.57;;
15905;SDS011;8051;50.820;4.884;2023-08-17T09:58:02;35.73;;;32.70;;
15905;SDS011;8051;50.820;4.884;2023-08-17T10:00:30;36.47;;;33.30;;
15905;SDS011;8051;50.820;4.884;2023-08-17T10:02:58;33.77;;;30.87;;
15905;SDS011;8051;50.820;4.884;2023-08-17T10:05:30;33.93;;;30.97;;
15905;SDS011;8051;50.820;4.884;2023-08-17T10:08:04;33.47;;;30.77;;
15905;SDS011;8051;50.820;4.884;2023-08-17T10:10:36;34.37;;;31.47;;
15905;SDS011;8051;50.820;4.884;2023-08-17T10:13:08;33.03;;;30.37;;
15905;SDS011;8051;50.820;4.884;2023-08-17T10:15:41;34.27;;;31.27;;
15905;SDS011;8051;50.820;4.884;2023-08-17T10:18:17;35.67;;;32.60;;
15905;SDS011;8051;50.820;4.884;2023-08-17T10:20:58;34.97;;;32.07;;
15905;SDS011;8051;50.820;4.884;2023-08-17T10:23:27;36.07;;;32.87;;
15905;SDS011;8051;50.820;4.884;2023-08-17T10:25:57;35.33;;;32.40;;
15905;SDS011;8051;50.820;4.884;2023-08-17T10:28:27;35.87;;;32.83;;
15905;SDS011;8051;50.820;4.884;2023-08-17T10:30:57;35.87;;;32.97;;
15905;SDS011;8051;50.820;4.884;2023-08-17T10:33:25;35.33;;;32.37;;
15905;SDS011;8051;50.820;4.884;2023-08-17T10:35:54;36.30;;;33.00;;
15905;SDS011;8051;50.820;4.884;2023-08-17T10:38:23;34.73;;;31.73;;
15905;SDS011;8051;50.820;4.884;2023-08-17T10:43:52;36.10;;;32.80;;
15905;SDS011;8051;50.820;4.884;2023-08-17T10:46:21;36.03;;;33.03;;
15905;SDS011;8051;50.820;4.884;2023-08-17T10:49:00;36.80;;;33.73;;
15905;SDS011;8051;50.820;4.884;2023-08-17T10:51:30;34.70;;;31.70;;
15905;SDS011;8051;50.820;4.884;2023-08-17T10:53:58;36.20;;;33.07;;
15905;SDS011;8051;50.820;4.884;2023-08-17T10:56:29;35.00;;;32.20;;
15905;SDS011;8051;50.820;4.884;2023-08-17T10:59:00;35.03;;;32.20;;
15905;SDS011;8051;50.820;4.884;2023-08-17T11:01:31;34.00;;;31.40;;
15905;SDS011;8051;50.820;4.884;2023-08-17T11:04:10;34.47;;;31.57;;
15905;SDS011;8051;50.820;4.884;2023-08-17T11:06:43;33.43;;;30.63;;
15905;SDS011;8051;50.820;4.884;2023-08-17T11:09:10;35.33;;;32.43;;
15905;SDS011;8051;50.820;4.884;2023-08-17T11:11:39;33.43;;;30.93;;
15905;SDS011;8051;50.820;4.884;2023-08-17T11:14:08;33.73;;;31.13;;
15905;SDS011;8051;50.820;4.884;2023-08-17T11:16:35;34.43;;;31.57;;
15905;SDS011;8051;50.820;4.884;2023-08-17T11:19:03;35.67;;;32.90;;
15905;SDS011;8051;50.820;4.884;2023-08-17T11:21:30;34.10;;;31.50;;
15905;SDS011;8051;50.820;4.884;2023-08-17T11:23:58;36.77;;;33.77;;
15905;SDS011;8051;50.820;4.884;2023-08-17T11:26:25;34.97;;;32.20;;
15905;SDS011;8051;50.820;4.884;2023-08-17T11:28:55;36.73;;;33.93;;
15905;SDS011;8051;50.820;4.884;2023-08-17T11:31:23;36.43;;;33.43;;
15905;SDS011;8051;50.820;4.884;2023-08-17T11:33:51;35.93;;;33.00;;
15905;SDS011;8051;50.820;4.884;2023-08-17T11:36:20;36.70;;;33.63;;
15905;SDS011;8051;50.820;4.884;2023-08-17T11:38:49;35.30;;;32.33;;
15905;SDS011;8051;50.820;4.884;2023-08-17T11:41:16;35.87;;;32.77;;
15905;SDS011;8051;50.820;4.884;2023-08-17T11:43:46;34.87;;;31.90;;
15905;SDS011;8051;50.820;4.884;2023-08-17T11:46:15;36.27;;;33.47;;
15905;SDS011;8051;50.820;4.884;2023-08-17T11:48:42;36.57;;;33.20;;
15905;SDS011;8051;50.820;4.884;2023-08-17T11:51:10;34.53;;;31.80;;
15905;SDS011;8051;50.820;4.884;2023-08-17T11:53:38;34.60;;;32.00;;
15905;SDS011;8051;50.820;4.884;2023-08-17T11:56:06;35.67;;;32.57;;
15905;SDS011;8051;50.820;4.884;2023-08-17T11:58:40;34.50;;;31.80;;
15905;SDS011;8051;50.820;4.884;2023-08-17T12:01:09;33.67;;;31.03;;
15905;SDS011;8051;50.820;4.884;2023-08-17T12:03:39;35.30;;;32.47;;
15905;SDS011;8051;50.820;4.884;2023-08-17T12:06:07;34.63;;;31.87;;
15905;SDS011;8051;50.820;4.884;2023-08-17T12:08:34;35.07;;;32.63;;
15905;SDS011;8051;50.820;4.884;2023-08-17T12:11:02;35.70;;;32.80;;
15905;SDS011;8051;50.820;4.884;2023-08-17T12:13:30;34.77;;;32.00;;
15905;SDS011;8051;50.820;4.884;2023-08-17T12:15:59;34.90;;;32.30;;
15905;SDS011;8051;50.820;4.884;2023-08-17T12:18:27;36.80;;;33.87;;
15905;SDS011;8051;50.820;4.884;2023-08-17T12:20:56;36.43;;;33.37;;
15905;SDS011;8051;50.820;4.884;2023-08-17T12:23:23;36.20;;;33.13;;
15905;SDS011;8051;50.820;4.884;2023-08-17T12:25:54;36.90;;;33.90;;
15905;SDS011;8051;50.820;4.884;2023-08-17T12:28:21;36.10;;;33.23;;
15905;SDS011;8051;50.820;4.884;2023-08-17T12:30:57;37.20;;;34.20;;
15905;SDS011;8051;50.820;4.884;2023-08-17T12:33:25;38.77;;;35.67;;
15905;SDS011;8051;50.820;4.884;2023-08-17T12:35:53;36.27;;;33.50;;
15905;SDS011;8051;50.820;4.884;2023-08-17T12:38:23;37.47;;;34.27;;
15905;SDS011;8051;50.820;4.884;2023-08-17T12:40:51;37.23;;;34.17;;
15905;SDS011;8051;50.820;4.884;2023-08-17T12:43:18;36.67;;;33.57;;
15905;SDS011;8051;50.820;4.884;2023-08-17T12:45:46;38.00;;;34.80;;
15905;SDS011;8051;50.820;4.884;2023-08-17T12:48:13;38.47;;;35.30;;
15905;SDS011;8051;50.820;4.884;2023-08-17T12:50:40;39.80;;;35.87;;
15905;SDS011;8051;50.820;4.884;2023-08-17T12:53:08;39.93;;;36.13;;
15905;SDS011;8051;50.820;4.884;2023-08-17T12:55:37;38.87;;;35.67;;
15905;SDS011;8051;50.820;4.884;2023-08-17T12:58:07;39.43;;;35.83;;
15905;SDS011;8051;50.820;4.884;2023-08-17T13:00:34;39.37;;;36.17;;
15905;SDS011;8051;50.820;4.884;2023-08-17T13:03:02;40.13;;;36.50;;
15905;SDS011;8051;50.820;4.884;2023-08-17T13:05:30;38.80;;;35.37;;
15905;SDS011;8051;50.820;4.884;2023-08-17T13:07:57;38.20;;;35.23;;
15905;SDS011;8051;50.820;4.884;2023-08-17T13:10:25;37.93;;;34.63;;
15905;SDS011;8051;50.820;4.884;2023-08-17T13:12:54;38.50;;;34.83;;
15905;SDS011;8051;50.820;4.884;2023-08-17T13:15:24;39.07;;;35.77;;
15905;SDS011;8051;50.820;4.884;2023-08-17T13:17:51;39.00;;;35.77;;
15905;SDS011;8051;50.820;4.884;2023-08-17T13:20:19;38.23;;;34.90;;
15905;SDS011;8051;50.820;4.884;2023-08-17T13:22:46;38.73;;;35.50;;
15905;SDS011;8051;50.820;4.884;2023-08-17T13:25:14;38.87;;;35.53;;
15905;SDS011;8051;50.820;4.884;2023-08-17T13:27:42;38.53;;;35.33;;
15905;SDS011;8051;50.820;4.884;2023-08-17T13:30:11;38.63;;;35.37;;
15905;SDS011;8051;50.820;4.884;2023-08-17T13:32:39;38.13;;;35.00;;
15905;SDS011;8051;50.820;4.884;2023-08-17T13:35:08;38.97;;;35.57;;
15905;SDS011;8051;50.820;4.884;2023-08-17T13:37:36;37.63;;;34.33;;
15905;SDS011;8051;50.820;4.884;2023-08-17T13:40:04;37.13;;;33.83;;
15905;SDS011;8051;50.820;4.884;2023-08-17T13:42:32;37.70;;;34.60;;
15905;SDS011;8051;50.820;4.884;2023-08-17T13:45:00;37.10;;;34.00;;
15905;SDS011;8051;50.820;4.884;2023-08-17T13:47:29;36.70;;;33.70;;
15905;SDS011;8051;50.820;4.884;2023-08-17T13:49:56;39.83;;;36.40;;
15905;SDS011;8051;50.820;4.884;2023-08-17T13:52:24;40.23;;;36.63;;
15905;SDS011;8051;50.820;4.884;2023-08-17T13:54:51;39.60;;;36.33;;
15905;SDS011;8051;50.820;4.884;2023-08-17T13:57:19;42.10;;;38.57;;
15905;SDS011;8051;50.820;4.884;2023-08-17T13:59:46;40.67;;;37.17;;
15905;SDS011;8051;50.820;4.884;2023-08-17T14:02:14;39.50;;;36.10;;
15905;SDS011;8051;50.820;4.884;2023-08-17T14:04:43;39.37;;;35.70;;
15905;SDS011;8051;50.820;4.884;2023-08-17T14:07:10;37.30;;;34.17;;
15905;SDS011;8051;50.820;4.884;2023-08-17T14:09:38;36.40;;;33.37;;
15905;SDS011;8051;50.820;4.884;2023-08-17T14:12:05;38.43;;;35.13;;
15905;SDS011;8051;50.820;4.884;2023-08-17T14:14:33;38.73;;;35.13;;
15905;SDS011;8051;50.820;4.884;2023-08-17T14:17:01;36.93;;;33.60;;
15905;SDS011;8051;50.820;4.884;2023-08-17T14:19:28;38.20;;;35.13;;
15905;SDS011;8051;50.820;4.884;2023-08-17T14:21:58;38.67;;;35.17;;
15905;SDS011;8051;50.820;4.884;2023-08-17T14:24:26;38.50;;;35.30;;
15905;SDS011;8051;50.820;4.884;2023-08-17T14:26:53;35.83;;;32.93;;
15905;SDS011;8051;50.820;4.884;2023-08-17T14:29:22;38.00;;;34.70;;
15905;SDS011;8051;50.820;4.884;2023-08-17T14:31:49;37.43;;;34.33;;
15905;SDS011;8051;50.820;4.884;2023-08-17T14:34:17;37.10;;;34.10;;
15905;SDS011;8051;50.820;4.884;2023-08-17T14:36:44;38.20;;;34.50;;
15905;SDS011;8051;50.820;4.884;2023-08-17T14:39:13;37.93;;;34.63;;
15905;SDS011;8051;50.820;4.884;2023-08-17T14:41:41;36.87;;;33.40;;
15905;SDS011;8051;50.820;4.884;2023-08-17T14:44:08;35.10;;;32.37;;